createdAt,value
2018-07-13T00:01:57.283Z,4.70
2018-07-13T00:04:25.236Z,4.20
2018-07-13T00:06:53.232Z,4.10
2018-07-13T00:09:21.196Z,4.07
2018-07-13T00:11:53.612Z,3.93
2018-07-13T00:14:25.023Z,4.67
2018-07-13T00:16:55.154Z,4.10
2018-07-13T00:19:23.566Z,4.20
2018-07-13T00:21:51.563Z,4.07
2018-07-13T00:24:19.508Z,3.60
2018-07-13T00:26:47.475Z,4.03
2018-07-13T00:29:15.443Z,4.70
2018-07-13T00:31:43.795Z,4.67
2018-07-13T00:34:11.748Z,4.07
2018-07-13T00:36:39.707Z,4.20
2018-07-13T00:39:08.238Z,4.50
2018-07-13T00:41:36.199Z,4.43
2018-07-13T00:44:04.569Z,4.60
2018-07-13T00:46:32.532Z,5.57
2018-07-13T00:49:00.503Z,3.93
2018-07-13T00:51:28.467Z,4.00
2018-07-13T00:53:56.422Z,4.90
2018-07-13T00:56:24.374Z,4.00
2018-07-13T00:58:52.340Z,4.70
2018-07-13T01:01:20.343Z,4.60
2018-07-13T01:03:48.294Z,4.63
2018-07-13T01:06:16.309Z,4.13
2018-07-13T01:08:46.550Z,4.90
2018-07-13T01:11:14.507Z,4.10
2018-07-13T01:13:42.475Z,4.20
2018-07-13T01:16:10.486Z,4.00
2018-07-13T01:18:38.537Z,5.60
2018-07-13T01:21:06.543Z,5.53
2018-07-13T01:23:34.554Z,5.27
2018-07-13T01:26:02.561Z,4.97
2018-07-13T01:28:30.617Z,5.00
2018-07-13T01:30:58.667Z,4.50
2018-07-13T01:33:26.677Z,5.53
2018-07-13T01:35:54.716Z,5.90
2018-07-13T01:38:22.769Z,5.73
2018-07-13T01:40:50.803Z,4.87
2018-07-13T01:43:18.818Z,4.30
2018-07-13T01:45:46.839Z,5.00
2018-07-13T01:48:14.889Z,5.80
2018-07-13T01:50:42.900Z,5.07
2018-07-13T01:53:10.906Z,4.80
2018-07-13T01:55:38.950Z,4.90
2018-07-13T01:58:06.946Z,5.10
2018-07-13T02:00:34.970Z,5.57
2018-07-13T02:03:03.030Z,5.40
2018-07-13T02:05:31.079Z,5.67
2018-07-13T02:07:59.137Z,5.13
2018-07-13T02:10:27.173Z,6.30
2018-07-13T02:12:55.196Z,5.70
2018-07-13T02:15:23.211Z,4.70
2018-07-13T02:17:51.322Z,4.73
2018-07-13T02:20:19.295Z,4.33
2018-07-13T02:22:47.348Z,5.23
2018-07-13T02:25:15.351Z,5.30
2018-07-13T02:27:43.404Z,5.10
2018-07-13T02:30:11.399Z,4.93
2018-07-13T02:32:39.415Z,5.70
2018-07-13T02:35:07.429Z,6.17
2018-07-13T02:37:35.454Z,5.40
2018-07-13T02:40:03.508Z,5.50
2018-07-13T02:42:31.515Z,5.90
2018-07-13T02:44:59.535Z,5.17
2018-07-13T02:47:27.591Z,5.80
2018-07-13T02:49:55.598Z,4.87
2018-07-13T02:52:23.607Z,5.30
2018-07-13T02:54:51.614Z,5.70
2018-07-13T02:57:19.618Z,5.17
2018-07-13T02:59:47.617Z,6.00
2018-07-13T03:02:15.616Z,6.13
2018-07-13T03:04:43.637Z,6.60
2018-07-13T03:07:11.640Z,6.20
2018-07-13T03:09:39.652Z,5.93
2018-07-13T03:12:07.851Z,6.50
2018-07-13T03:14:35.845Z,6.27
2018-07-13T03:17:03.861Z,6.00
2018-07-13T03:19:31.871Z,6.57
2018-07-13T03:21:59.879Z,6.30
2018-07-13T03:24:27.880Z,7.00
2018-07-13T03:26:55.883Z,5.57
2018-07-13T03:29:23.883Z,4.77
2018-07-13T03:31:51.959Z,6.50
2018-07-13T03:34:19.963Z,6.37
2018-07-13T03:36:48.010Z,6.73
2018-07-13T03:39:16.015Z,6.10
2018-07-13T03:41:44.025Z,6.00
2018-07-13T03:44:12.023Z,6.80
2018-07-13T03:46:40.092Z,7.03
2018-07-13T03:49:08.100Z,7.00
2018-07-13T03:51:36.129Z,6.97
2018-07-13T03:54:04.193Z,7.10
2018-07-13T03:56:32.139Z,6.70
2018-07-13T03:59:00.135Z,6.73
2018-07-13T04:01:28.143Z,6.90
2018-07-13T04:03:56.158Z,6.40
2018-07-13T04:06:24.194Z,6.70
2018-07-13T04:08:52.192Z,7.20
2018-07-13T04:11:20.200Z,7.07
2018-07-13T04:13:48.206Z,5.70
2018-07-13T04:16:16.210Z,6.77
2018-07-13T04:18:44.223Z,6.83
2018-07-13T04:21:12.224Z,7.27
2018-07-13T04:23:40.238Z,6.50
2018-07-13T04:26:08.241Z,7.63
2018-07-13T04:28:36.242Z,8.17
2018-07-13T04:31:04.262Z,7.30
2018-07-13T04:33:32.450Z,8.03
2018-07-13T04:36:00.519Z,7.47
2018-07-13T04:38:28.726Z,7.17
2018-07-13T04:40:57.000Z,6.90
2018-07-13T04:43:25.039Z,7.50
2018-07-13T04:45:53.292Z,6.20
2018-07-13T04:48:21.368Z,7.17
2018-07-13T04:50:49.595Z,6.33
2018-07-13T04:53:17.824Z,6.60
2018-07-13T04:55:46.106Z,6.97
2018-07-13T04:58:14.159Z,7.37
2018-07-13T05:00:42.342Z,6.53
2018-07-13T05:03:10.476Z,7.10
2018-07-13T05:05:38.523Z,7.37
2018-07-13T05:08:06.848Z,6.57
2018-07-13T05:10:34.909Z,6.67
2018-07-13T05:13:02.919Z,6.37
2018-07-13T05:15:31.130Z,5.50
2018-07-13T05:17:59.182Z,5.63
2018-07-13T05:20:27.491Z,5.40
2018-07-13T05:22:55.793Z,6.40
2018-07-13T05:25:23.823Z,6.00
2018-07-13T05:27:51.823Z,6.33
2018-07-13T05:30:19.846Z,5.67
2018-07-13T05:32:47.851Z,6.30
2018-07-13T05:35:15.851Z,5.80
2018-07-13T05:37:43.875Z,5.67
2018-07-13T05:40:11.877Z,5.50
2018-07-13T05:42:39.886Z,5.90
2018-07-13T05:45:07.955Z,5.40
2018-07-13T05:47:35.961Z,5.13
2018-07-13T05:50:04.283Z,5.40
2018-07-13T05:52:32.286Z,5.27
2018-07-13T05:55:00.274Z,4.70
2018-07-13T05:57:28.319Z,5.70
2018-07-13T05:59:56.313Z,5.33
2018-07-13T06:02:24.304Z,4.80
2018-07-13T06:04:52.293Z,5.37
2018-07-13T06:07:20.299Z,5.50
2018-07-13T06:09:48.392Z,4.70
2018-07-13T06:12:16.328Z,4.73
2018-07-13T06:14:44.324Z,5.00
2018-07-13T06:17:12.304Z,4.93
2018-07-13T06:19:40.289Z,5.67
2018-07-13T06:22:08.287Z,4.80
2018-07-13T06:24:36.287Z,5.23
2018-07-13T06:27:04.300Z,3.87
2018-07-13T06:29:32.306Z,4.57
2018-07-13T06:32:00.310Z,4.73
2018-07-13T06:34:28.310Z,4.07
2018-07-13T06:36:56.333Z,4.33
2018-07-13T06:39:24.329Z,4.00
2018-07-13T06:41:52.351Z,3.53
2018-07-13T06:44:20.354Z,3.60
2018-07-13T06:46:48.415Z,3.07
2018-07-13T06:49:17.160Z,3.83
2018-07-13T06:51:45.159Z,3.23
2018-07-13T06:54:13.167Z,3.30
2018-07-13T06:56:41.218Z,3.07
2018-07-13T06:59:13.037Z,3.00
2018-07-13T07:01:41.093Z,3.70
2018-07-13T07:04:29.355Z,2.47
2018-07-13T07:06:57.851Z,2.70
2018-07-13T07:09:25.857Z,2.90
2018-07-13T07:11:59.578Z,2.70
2018-07-13T07:14:27.573Z,3.27
2018-07-13T07:16:55.562Z,2.63
2018-07-13T07:19:23.555Z,2.37
2018-07-13T07:21:51.528Z,2.43
2018-07-13T07:24:19.517Z,2.63
2018-07-13T07:26:47.529Z,2.67
2018-07-13T07:29:15.534Z,2.90
2018-07-13T07:31:43.531Z,3.37
2018-07-13T07:34:11.545Z,2.57
2018-07-13T07:36:39.546Z,2.90
2018-07-13T07:39:09.123Z,2.73
2018-07-13T07:41:37.192Z,2.77
2018-07-13T07:44:05.231Z,1.83
2018-07-13T07:46:33.231Z,2.50
2018-07-13T07:49:01.247Z,2.37
2018-07-13T07:51:29.226Z,2.63
2018-07-13T07:53:57.215Z,2.20
2018-07-13T07:56:25.219Z,2.50
2018-07-13T07:58:53.227Z,1.80
2018-07-13T08:01:21.217Z,1.90
2018-07-13T08:03:49.235Z,1.30
2018-07-13T08:06:17.311Z,1.77
2018-07-13T08:08:45.227Z,1.80
2018-07-13T08:11:13.206Z,1.57
2018-07-13T08:13:41.287Z,1.27
2018-07-13T08:16:09.207Z,1.53
2018-07-13T08:18:37.280Z,1.57
2018-07-13T08:21:05.311Z,1.80
2018-07-13T08:23:33.311Z,1.90
2018-07-13T08:26:01.329Z,1.77
2018-07-13T08:28:29.825Z,1.70
2018-07-13T08:30:58.748Z,1.87
2018-07-13T08:33:26.761Z,1.43
2018-07-13T08:35:54.776Z,2.40
2018-07-13T08:38:22.807Z,2.00
2018-07-13T08:40:50.822Z,2.00
2018-07-13T08:43:18.811Z,2.03
2018-07-13T08:45:46.889Z,2.20
2018-07-13T08:48:14.829Z,1.50
2018-07-13T08:50:42.840Z,1.40
2018-07-13T08:53:10.845Z,1.77
2018-07-13T08:55:38.855Z,1.40
2018-07-13T08:58:06.863Z,1.80
2018-07-13T09:00:34.987Z,1.80
2018-07-13T09:03:13.653Z,1.63
2018-07-13T09:05:41.874Z,1.57
2018-07-13T09:08:10.024Z,2.53
2018-07-13T09:10:40.251Z,1.40
2018-07-13T09:13:08.250Z,2.23
2018-07-13T09:15:36.896Z,1.23
2018-07-13T09:18:04.913Z,1.63
2018-07-13T09:20:32.983Z,1.70
2018-07-13T09:23:01.108Z,1.57
2018-07-13T09:25:29.168Z,1.70
2018-07-13T09:27:57.191Z,2.00
2018-07-13T09:30:37.433Z,1.73
2018-07-13T09:33:05.578Z,1.50
2018-07-13T09:35:33.630Z,1.37
2018-07-13T09:38:01.823Z,1.83
2018-07-13T09:40:29.796Z,1.43
2018-07-13T09:42:58.911Z,1.20
2018-07-13T09:45:26.939Z,1.80
2018-07-13T09:47:55.063Z,2.17
2018-07-13T09:50:23.103Z,1.87
2018-07-13T09:52:51.216Z,1.83
2018-07-13T09:55:19.227Z,1.60
2018-07-13T09:57:47.283Z,1.90
2018-07-13T10:00:15.324Z,1.50
2018-07-13T10:02:43.449Z,1.43
2018-07-13T10:05:11.448Z,1.60
2018-07-13T10:07:39.642Z,1.53
2018-07-13T10:10:07.680Z,1.50
2018-07-13T10:12:35.750Z,1.67
2018-07-13T10:15:03.844Z,1.40
2018-07-13T10:17:31.855Z,1.43
2018-07-13T10:20:03.603Z,1.30
2018-07-13T10:22:31.886Z,1.50
2018-07-13T10:25:00.791Z,1.43
2018-07-13T10:27:30.095Z,1.40
2018-07-13T10:29:58.387Z,1.57
2018-07-13T10:32:26.459Z,1.80
2018-07-13T10:34:54.510Z,2.00
2018-07-13T10:37:23.312Z,1.90
2018-07-13T10:39:51.351Z,2.10
2018-07-13T10:42:19.394Z,1.70
2018-07-13T10:44:47.421Z,2.57
2018-07-13T10:47:15.435Z,3.13
2018-07-13T10:49:43.484Z,2.00
2018-07-13T10:52:11.530Z,1.10
2018-07-13T10:54:39.559Z,2.87
2018-07-13T10:57:07.655Z,2.40
2018-07-13T10:59:35.615Z,1.53
2018-07-13T11:02:03.643Z,1.50
2018-07-13T11:04:31.655Z,1.10
2018-07-13T11:06:59.720Z,1.33
2018-07-13T11:09:27.751Z,1.30
2018-07-13T11:11:55.762Z,1.30
2018-07-13T11:14:23.797Z,1.33
2018-07-13T11:16:51.825Z,1.37
2018-07-13T11:19:19.872Z,1.10
2018-07-13T11:21:47.886Z,1.47
2018-07-13T11:24:15.939Z,1.30
2018-07-13T11:26:43.926Z,2.57
2018-07-13T11:29:11.966Z,1.70
2018-07-13T11:31:40.020Z,1.47
2018-07-13T11:34:08.060Z,1.50
2018-07-13T11:36:36.084Z,1.50
2018-07-13T11:39:04.936Z,1.43
2018-07-13T11:41:32.964Z,1.87
2018-07-13T11:44:01.051Z,1.70
2018-07-13T11:46:28.995Z,1.47
2018-07-13T11:48:57.149Z,1.10
2018-07-13T11:51:25.164Z,1.40
2018-07-13T11:53:53.207Z,0.93
2018-07-13T11:56:21.362Z,1.30
2018-07-13T11:58:49.472Z,1.07
2018-07-13T12:01:17.583Z,1.40
2018-07-13T12:03:45.617Z,1.20
2018-07-13T12:06:13.684Z,1.57
2018-07-13T12:08:41.696Z,1.40
2018-07-13T12:11:09.718Z,1.00
2018-07-13T12:13:37.752Z,1.10
2018-07-13T12:16:05.792Z,1.30
2018-07-13T12:18:33.816Z,1.20
2018-07-13T12:21:01.863Z,1.53
2018-07-13T12:23:29.877Z,1.00
2018-07-13T12:25:58.309Z,1.27
2018-07-13T12:28:26.332Z,0.97
2018-07-13T12:30:54.410Z,1.33
2018-07-13T12:33:22.437Z,1.37
2018-07-13T12:35:50.475Z,1.10
2018-07-13T12:38:18.519Z,1.47
2018-07-13T12:40:46.540Z,1.23
2018-07-13T12:43:14.691Z,1.73
2018-07-13T12:45:42.732Z,1.83
2018-07-13T12:48:11.549Z,2.00
2018-07-13T12:50:39.929Z,1.60
2018-07-13T12:53:07.946Z,1.70
2018-07-13T12:55:36.158Z,1.60
2018-07-13T12:58:04.434Z,1.30
2018-07-13T13:00:32.524Z,1.20
2018-07-13T13:03:00.737Z,1.07
2018-07-13T13:05:29.231Z,1.07
2018-07-13T13:07:57.565Z,1.30
2018-07-13T13:10:25.793Z,0.90
2018-07-13T13:12:54.196Z,1.20
2018-07-13T13:15:22.316Z,1.40
2018-07-13T13:17:50.371Z,1.20
2018-07-13T13:20:18.461Z,1.40
2018-07-13T13:22:46.718Z,1.20
2018-07-13T13:25:14.874Z,1.70
2018-07-13T13:27:43.140Z,1.77
2018-07-13T13:30:11.360Z,1.40
2018-07-13T13:32:41.554Z,1.70
2018-07-13T13:35:16.154Z,1.60
2018-07-13T13:37:44.195Z,1.53
2018-07-13T13:40:12.326Z,1.27
2018-07-13T13:42:41.776Z,1.30
2018-07-13T13:45:10.937Z,1.43
2018-07-13T13:47:41.797Z,1.10
2018-07-13T13:50:11.871Z,1.50
2018-07-13T13:52:41.211Z,1.30
2018-07-13T13:55:09.419Z,1.90
2018-07-13T13:57:38.812Z,1.00
2018-07-13T14:00:12.716Z,1.40
2018-07-13T14:02:47.839Z,1.37
2018-07-13T14:05:16.427Z,1.50
2018-07-13T14:07:46.069Z,1.57
2018-07-13T14:10:18.695Z,1.30
2018-07-13T14:12:49.444Z,1.27
2018-07-13T14:15:18.725Z,1.27
2018-07-13T14:17:46.979Z,1.60
2018-07-13T14:20:16.299Z,1.40
2018-07-13T14:22:44.708Z,1.23
2018-07-13T14:25:14.292Z,1.97
2018-07-13T14:27:47.021Z,1.50
2018-07-13T14:30:15.352Z,1.33
2018-07-13T14:32:43.718Z,1.27
2018-07-13T14:35:11.779Z,1.07
2018-07-13T14:37:40.012Z,1.50
2018-07-13T14:40:08.122Z,1.00
2018-07-13T14:42:36.373Z,1.47
2018-07-13T14:45:09.963Z,1.30
2018-07-13T14:47:40.861Z,0.87
2018-07-13T14:50:09.022Z,1.20
2018-07-13T14:52:37.436Z,1.00
2018-07-13T14:55:05.980Z,1.20
2018-07-13T14:57:34.447Z,1.77
2018-07-13T15:00:02.606Z,1.20
2018-07-13T15:02:30.961Z,1.70
2018-07-13T15:04:59.248Z,1.23
2018-07-13T15:07:27.453Z,1.40
2018-07-13T15:09:56.443Z,1.23
2018-07-13T15:12:24.896Z,1.33
2018-07-13T15:14:53.144Z,1.40
2018-07-13T15:17:24.406Z,1.50
2018-07-13T15:19:52.502Z,1.60
2018-07-13T15:22:20.817Z,1.33
2018-07-13T15:24:48.992Z,1.40
2018-07-13T15:27:19.635Z,1.43
2018-07-13T15:29:51.972Z,1.60
2018-07-13T15:32:20.299Z,1.10
2018-07-13T15:34:48.425Z,1.60
2018-07-13T15:37:18.749Z,1.30
2018-07-13T15:39:47.602Z,1.83
2018-07-13T15:42:16.502Z,1.60
2018-07-13T15:44:44.569Z,1.70
2018-07-13T15:47:12.630Z,1.50
2018-07-13T15:49:41.155Z,1.33
2018-07-13T15:52:09.793Z,1.60
2018-07-13T15:54:38.015Z,1.27
2018-07-13T15:57:06.194Z,1.53
2018-07-13T15:59:34.568Z,1.67
2018-07-13T16:02:02.830Z,1.70
2018-07-13T16:04:31.123Z,1.50
2018-07-13T16:06:59.389Z,1.90
2018-07-13T16:09:28.188Z,2.03
2018-07-13T16:11:59.854Z,1.63
2018-07-13T16:14:28.064Z,1.37
2018-07-13T16:16:56.789Z,1.90
2018-07-13T16:19:25.280Z,2.37
2018-07-13T16:21:53.729Z,2.27
2018-07-13T16:24:21.981Z,1.43
2018-07-13T16:26:51.005Z,1.83
2018-07-13T16:29:19.563Z,2.13
2018-07-13T16:31:47.996Z,2.23
2018-07-13T16:34:25.499Z,1.87
2018-07-13T16:36:54.480Z,3.07
2018-07-13T16:39:23.447Z,1.70
2018-07-13T16:41:51.799Z,1.87
2018-07-13T16:44:20.075Z,1.70
2018-07-13T16:46:48.357Z,1.83
2018-07-13T16:49:16.861Z,1.63
2018-07-13T16:51:45.516Z,2.10
2018-07-13T16:54:14.686Z,1.73
2018-07-13T16:56:43.332Z,1.37
2018-07-13T16:59:11.487Z,1.90
2018-07-13T17:01:39.933Z,1.90
2018-07-13T17:04:08.357Z,2.20
2018-07-13T17:06:36.716Z,1.73
2018-07-13T17:09:05.638Z,2.73
2018-07-13T17:11:34.026Z,2.17
2018-07-13T17:14:02.317Z,1.73
2018-07-13T17:16:30.739Z,2.20
2018-07-13T17:18:59.220Z,1.60
2018-07-13T17:21:27.870Z,1.83
2018-07-13T17:23:56.161Z,1.73
2018-07-13T17:26:24.343Z,1.70
2018-07-13T17:28:53.914Z,1.70
2018-07-13T17:31:22.347Z,2.17
2018-07-13T17:33:50.648Z,1.70
2018-07-13T17:36:19.126Z,1.70
2018-07-13T17:38:47.441Z,2.00
2018-07-13T17:41:16.792Z,1.53
2018-07-13T17:43:45.117Z,1.83
2018-07-13T17:46:13.941Z,1.90
2018-07-13T17:48:43.946Z,2.10
2018-07-13T17:51:12.175Z,2.00
2018-07-13T17:53:41.366Z,2.23
2018-07-13T17:56:09.600Z,2.20
2018-07-13T17:58:38.751Z,2.27
2018-07-13T18:01:07.240Z,2.40
2018-07-13T18:03:35.464Z,2.03
2018-07-13T18:06:03.479Z,2.10
2018-07-13T18:08:31.595Z,2.50
2018-07-13T18:10:59.693Z,2.60
2018-07-13T18:13:28.093Z,2.00
2018-07-13T18:15:56.415Z,2.37
2018-07-13T18:18:24.601Z,2.30
2018-07-13T18:20:53.741Z,2.00
2018-07-13T18:23:22.648Z,1.90
2018-07-13T18:25:52.762Z,2.10
2018-07-13T18:28:21.834Z,1.70
2018-07-13T18:30:50.236Z,2.10
2018-07-13T18:33:20.175Z,2.00
2018-07-13T18:35:48.279Z,2.03
2018-07-13T18:38:16.328Z,1.77
2018-07-13T18:40:44.352Z,2.10
2018-07-13T18:43:12.422Z,2.17
2018-07-13T18:45:40.729Z,2.40
2018-07-13T18:48:08.778Z,1.70
2018-07-13T18:50:37.280Z,2.00
2018-07-13T18:53:05.780Z,2.30
2018-07-13T18:55:33.823Z,2.23
2018-07-13T18:58:01.985Z,2.23
2018-07-13T19:00:30.208Z,2.60
2018-07-13T19:02:58.469Z,2.60
2018-07-13T19:05:27.579Z,3.27
2018-07-13T19:07:55.740Z,2.80
2018-07-13T19:10:23.755Z,3.00
2018-07-13T19:12:52.363Z,3.63
2018-07-13T19:15:20.494Z,3.20
2018-07-13T19:17:48.660Z,3.47
2018-07-13T19:20:16.766Z,3.57
2018-07-13T19:22:44.924Z,3.60
2018-07-13T19:25:12.809Z,3.37
2018-07-13T19:27:41.690Z,3.67
2018-07-13T19:30:09.679Z,3.30
2018-07-13T19:32:37.656Z,3.90
2018-07-13T19:35:05.781Z,3.67
2018-07-13T19:37:33.803Z,4.13
2018-07-13T19:40:02.625Z,4.00
2018-07-13T19:42:30.694Z,4.20
2018-07-13T19:45:00.808Z,4.70
2018-07-13T19:47:28.832Z,4.60
2018-07-13T19:49:57.135Z,4.60
2018-07-13T19:52:25.336Z,4.50
2018-07-13T19:54:53.528Z,4.63
2018-07-13T19:57:21.763Z,3.83
2018-07-13T19:59:49.665Z,3.80
2018-07-13T20:02:17.912Z,4.60
2018-07-13T20:04:46.052Z,3.50
2018-07-13T20:07:14.081Z,4.20
2018-07-13T20:09:42.086Z,3.83
2018-07-13T20:12:10.095Z,4.47
2018-07-13T20:14:38.096Z,4.20
2018-07-13T20:17:06.155Z,4.87
2018-07-13T20:19:34.115Z,5.30
2018-07-13T20:22:02.115Z,5.10
2018-07-13T20:24:30.124Z,4.53
2018-07-13T20:26:58.259Z,5.10
2018-07-13T20:29:26.290Z,6.50
2018-07-13T20:31:54.363Z,6.23
2018-07-13T20:34:22.367Z,6.83
2018-07-13T20:36:50.489Z,6.93
2018-07-13T20:39:18.523Z,6.00
2018-07-13T20:41:46.478Z,5.60
2018-07-13T20:44:14.465Z,5.40
2018-07-13T20:46:42.471Z,5.83
2018-07-13T20:49:10.458Z,5.97
2018-07-13T20:51:38.445Z,5.90
2018-07-13T20:54:06.657Z,5.87
2018-07-13T20:56:34.587Z,4.70
2018-07-13T20:59:02.582Z,5.60
2018-07-13T21:01:30.663Z,5.67
2018-07-13T21:03:58.992Z,5.50
2018-07-13T21:06:27.008Z,4.73
2018-07-13T21:08:55.004Z,5.23
2018-07-13T21:11:23.018Z,6.80
2018-07-13T21:13:50.999Z,5.87
2018-07-13T21:16:19.016Z,5.37
2018-07-13T21:18:47.012Z,5.90
2018-07-13T21:21:15.016Z,5.87
2018-07-13T21:23:43.015Z,6.10
2018-07-13T21:26:11.026Z,5.80
2018-07-13T21:28:39.036Z,6.20
2018-07-13T21:31:07.038Z,6.00
2018-07-13T21:33:35.047Z,5.73
2018-07-13T21:36:03.057Z,4.93
2018-07-13T21:38:31.055Z,5.80
2018-07-13T21:40:59.191Z,6.10
2018-07-13T21:43:27.191Z,6.10
2018-07-13T21:45:55.167Z,6.27
2018-07-13T21:48:23.266Z,6.50
2018-07-13T21:50:51.268Z,6.33
2018-07-13T21:53:19.267Z,6.80
2018-07-13T21:55:47.265Z,5.57
2018-07-13T21:58:15.284Z,5.40
2018-07-13T22:00:43.431Z,5.97
2018-07-13T22:03:11.418Z,5.70
2018-07-13T22:05:39.422Z,5.37
2018-07-13T22:08:07.418Z,5.40
2018-07-13T22:10:35.407Z,4.60
2018-07-13T22:13:03.418Z,5.03
2018-07-13T22:15:31.423Z,5.60
2018-07-13T22:17:59.433Z,6.07
2018-07-13T22:20:27.443Z,5.30
2018-07-13T22:22:55.522Z,5.37
2018-07-13T22:25:23.520Z,5.50
2018-07-13T22:27:51.606Z,4.80
2018-07-13T22:30:19.619Z,4.90
2018-07-13T22:32:47.623Z,4.57
2018-07-13T22:35:15.589Z,5.00
2018-07-13T22:37:43.682Z,5.57
2018-07-13T22:40:11.677Z,4.30
2018-07-13T22:42:39.671Z,4.37
2018-07-13T22:45:07.645Z,5.17
2018-07-13T22:47:35.638Z,4.30
2018-07-13T22:50:03.655Z,5.27
2018-07-13T22:52:31.774Z,5.30
2018-07-13T22:54:59.889Z,5.07
2018-07-13T22:57:27.955Z,4.73
2018-07-13T22:59:56.067Z,4.90
2018-07-13T23:02:24.166Z,5.00
2018-07-13T23:04:52.343Z,5.47
2018-07-13T23:07:20.567Z,4.50
2018-07-13T23:09:48.566Z,4.27
2018-07-13T23:12:16.568Z,4.30
2018-07-13T23:14:44.629Z,5.03
2018-07-13T23:17:12.757Z,4.67
2018-07-13T23:19:40.759Z,4.77
2018-07-13T23:22:08.763Z,5.20
2018-07-13T23:24:36.929Z,5.53
2018-07-13T23:27:05.859Z,4.83
2018-07-13T23:29:34.020Z,4.87
2018-07-13T23:32:02.210Z,5.67
2018-07-13T23:34:30.415Z,4.87
2018-07-13T23:36:58.604Z,4.73
2018-07-13T23:39:26.804Z,5.53
2018-07-13T23:41:54.954Z,5.60
2018-07-13T23:44:22.996Z,4.97
2018-07-13T23:46:51.040Z,4.37
2018-07-13T23:49:19.078Z,4.70
2018-07-13T23:51:47.159Z,5.17
2018-07-13T23:54:15.187Z,5.13
2018-07-13T23:56:43.218Z,4.90
2018-07-13T23:59:11.248Z,5.10
